Search flights

Borgo Panigale Airport, Bologna (LIPE)

Airport Weather & NOTAM's

METAR for:LIPE (Bologna/Marconi Arpt, BO, IT)
Text:LIPE 160650Z 20004KT CAVOK 23/11 Q1011
Conditions at:0650 UTC 16 Jun 2024
Temperature: 23.0°C ( 73°F)
Dewpoint: 11.0°C ( 52°F) [RH = 47%]
Pressure (altimeter):29.85 inches Hg (1011.0 mb)
Winds:from the SSW (200 degrees) at 5 MPH (4 knots; 2.1 m/s)
Visibility:6 or more sm (10+ km)
Ceiling:ceiling and visibility are OK
Clouds:unknown
TAF for:LIPE (Bologna/Marconi Arpt, BO, IT) issued at 0500 UTC 16 Jun 2024
Text:TAF LIPE 160500Z 1606/1706 VRB05KT CAVOK
Forecast period:0600 UTC 16 June 2024 to 0600 UTC 17 June 2024
Forecast type:FROM: standard forecast or significant change
Winds:variable direction winds at 6 MPH (5 knots; 2.6 m/s)
Visibility:6 or more sm (10+ km)
Clouds:missing
Weather:NSW (no significant weather)

Live Departures & Arrivals

There are currently no arrivals or departures for this airport.

Departures History (last 12 months)

Flight No. Dest. Aircraft Date
SIC0127 EHGG Fenix A320... 2024-04-15 15:58:28
SIC0904 LICT FenixA320_... 2024-03-28 19:50:16
SIC0868 LICT FenixA320_... 2024-03-28 20:20:10
SIC0038 LICT PMDG 737-8... 2024-03-28 20:03:39
SPP-TR05 LIPQ PMDG 737-8... 2024-03-24 14:26:11
SIC0812 LICC Fenix A320... 2024-03-02 16:28:23
SIC0649 LIPZ TBM850 AIR... 2024-02-18 05:47:27
BMV012 LIPR Just Fligh... 2024-01-30 18:27:19
SIC00154 LIPZ Cessna 172... 2024-01-23 10:58:40
BMI0982 LIPZ Cessna 414... 2024-01-11 11:34:44
SIC0\33 LICC Airbus A32... 2023-12-18 12:11:29
SIC0904 LIPZ Black Squa... 2023-11-29 09:54:18
SIC0904 LICC PMDG 737-8... 2023-11-27 21:12:32
SIC0172 LEVC Airbus A32... 2023-11-19 17:02:43
SPP-TR05 LIPQ PMDG 737-8... 2023-11-09 20:35:04
SPP-TR05 LIPQ NA 2023-11-09 20:31:37
BM1345 LICC FenixA320... 2023-11-08 06:09:10
SIC0107 LIRN FenixA320... 2023-11-05 18:31:41
SPP-TR05 LIPQ FenixA320... 2023-11-03 19:54:16
SPP-TR05 LIPQ FenixA320... 2023-10-24 14:23:15
SPP-TR05 LIPQ Airbus A32... 2023-10-22 17:57:29
BM1345 LICC Airbus A32... 2023-10-18 16:37:33
BM1345 LICC FenixA320 2023-10-09 14:01:45
SPP-TR05 LIPQ PMDG 737-8... 2023-10-05 21:41:00
SPP-TR05 LIPQ PMDG 737-8... 2023-10-05 14:32:45
SPP-TR05 LIPQ FenixA320... 2023-10-04 19:10:42
SPP-TR05 LIPQ PMDG 737-8... 2023-10-03 19:39:42
SPP-TR05 LIPQ Airbus A32... 2023-10-03 14:25:41
SPP-TR05 LIPQ PMDG 737-8... 2023-09-26 10:03:27
SICSIC LIPQ FenixA320... 2023-09-25 13:23:48
SPP-TR05 LIPQ PMDG 737-8... 2023-09-23 07:58:36
SIC0067 LIPZ DA62 Asobo 2023-09-08 22:09:34
BM5546 LGTS FenixA320... 2023-08-20 12:00:32
BMV0104 LIPZ Cessna 172... 2023-08-07 19:52:00
SIC1801 LIPZ DA40-NG As... 2023-08-02 18:59:31
SIC0998 LIPZ King Air 3... 2023-08-02 19:31:27
BMV012 LIPR Cessna 208... 2023-08-01 09:23:48
LIPE_GND LIPE C172 2023-07-05 19:30:00
SIC2679 LIMJ Cessna 208... 2023-06-24 16:32:55
SIC0868 LIPZ King Air 3... 2023-06-22 09:25:38
BMV003 LIMJ Cessna 208... 2023-06-22 20:08:33

Arrivals History (last 12 months)

Flight No. Origin Aircraft Date
SIC0904 LIMW Black Squa... 2024-05-17 19:59:56
SIC0126 LIRN PMDG 737-7... 2024-05-17 20:05:23
BMV531 LIMJ Black Squa... 2024-05-11 17:18:41
SPP-TR04 LFKJ PMDG 737-8... 2024-03-24 14:10:41
BMV011 LIPV Black Squa... 2024-01-30 17:00:47
SIC0649 LIMZ TBM850 AIR... 2024-01-29 16:00:27
BMI0982 LIMZ Cessna 414... 2024-01-10 18:30:42
SIC864 LIPK Cessna 152... 2024-01-03 23:59:46
BM119 LIRF FenixA320_... 2023-12-24 14:03:57
SIC0103 LIMF PMDG 737-7... 2023-12-23 20:09:10
SIC0133 LIAF Cessna 208... 2023-12-17 20:43:06
BM119 LICJ PMDG 737-8... 2023-12-12 22:21:40
SIC0904 LIMZ Black Squa... 2023-11-29 09:46:17
SIC0038 LIRA Cessna Cit... 2023-11-26 09:41:58
BM5579 LICT FFX Vision... 2023-11-21 21:56:23
SPP-TR04 LFKJ PMDG 737-8... 2023-11-06 23:45:52
BM1055 LICJ FenixA320... 2023-11-06 10:57:55
SPP-TR04 LFKJ Airbus A32... 2023-10-31 13:37:21
SPP-TR04 LFKJ Airbus A32... 2023-10-20 13:19:21
SIC0172 LIML Cessna Sky... 2023-10-12 16:48:05
BM1955 LIMF Black Squa... 2023-10-07 15:23:00
SPP-TR04 LFKJ PMDG 737-8... 2023-10-01 15:27:29
SPP-TR04 LFKJ FenixA320... 2023-10-01 13:38:00
SPP-TR04 LFKJ Airbus A32... 2023-09-26 21:01:09
SPP-TR04 LFKJ PMDG 737-8... 2023-09-26 09:26:38
SPP-TR04 LFKJ PMDG 737-8... 2023-09-21 16:14:38
SPP-TR04 LFKJ FenixA320... 2023-09-20 10:01:51
SIC0118 LICC FenixA320... 2023-09-09 15:38:43
SIC0067 LIMZ DA62 Asobo 2023-09-08 21:28:07
BMV011 LIPV Cessna 208... 2023-08-01 08:17:46
SIC0118 LFPG ToLissA319... 2023-07-16 08:13:02
SIC0103 LIMF King Air 3... 2023-07-10 20:41:35
LIPE_GND LIPE C172 2023-07-05 21:30:00
12 LIRN Cessna Lon... 2023-06-28 21:32:05
SIC0904 LIMW Carenado P... 2023-06-25 10:08:46
SIC2679 LICJ FenixA320... 2023-06-24 16:14:23
SIC0868 LIMZ King Air 3... 2023-06-22 08:36:01
SIC0023 LICR FenixA320... 2023-06-22 19:44:05

Runway Information (Airport elevation: 123ft)

Runway 12 Length 9,435ft Width 146ft Elevation 120ft Surface Asphalt Heading 117
Runway 30 Length 9,435ft Width 146ft Elevation 120ft Surface Asphalt Heading 297

Airport Frequencies

Type APP/DEP Frequency 118.150 Mhz
Type APP/DEP Frequency 133.775 Mhz
Type ATIS Frequency 134.875 Mhz
Type Ground Frequency 121.925 Mhz
Type Tower Frequency 120.100 Mhz
Type Tower Frequency 120.800 Mhz
Type APP/DEP Frequency 120.100 Mhz

Airport Navaids

Type VOR-DME Ident BOA Frequency 117100 Khz
Type NDB Ident BOA Frequency 413 Khz